createdAt,value
2018-11-07T00:00:25.893Z,12.7
2018-11-07T00:01:06.463Z,12.7
2018-11-07T00:01:47.020Z,12.58
2018-11-07T00:02:27.563Z,12.55
2018-11-07T00:03:08.120Z,12.61
2018-11-07T00:03:48.688Z,12.6
2018-11-07T00:04:29.266Z,12.61
2018-11-07T00:05:09.837Z,12.72
2018-11-07T00:05:50.392Z,12.6
2018-11-07T00:06:30.968Z,12.57
2018-11-07T00:07:11.546Z,12.7
2018-11-07T00:07:52.171Z,12.67
2018-11-07T00:08:32.766Z,12.57
2018-11-07T00:09:13.253Z,12.67
2018-11-07T00:09:53.808Z,12.57
2018-11-07T00:10:34.374Z,12.62
2018-11-07T00:11:14.932Z,12.61
2018-11-07T00:11:55.507Z,12.62
2018-11-07T00:12:36.097Z,12.6
2018-11-07T00:13:16.681Z,12.65
2018-11-07T00:13:57.288Z,12.58
2018-11-07T00:14:37.814Z,12.54
2018-11-07T00:15:18.381Z,12.68
2018-11-07T00:15:58.939Z,12.5
2018-11-07T00:16:39.503Z,12.64
2018-11-07T00:17:20.065Z,12.54
2018-11-07T00:18:00.618Z,12.61
2018-11-07T00:18:41.170Z,12.55
2018-11-07T00:19:21.728Z,12.58
2018-11-07T00:20:02.293Z,12.6
2018-11-07T00:20:42.849Z,12.57
2018-11-07T00:21:23.433Z,12.54
2018-11-07T00:22:03.988Z,12.58
2018-11-07T00:22:44.571Z,12.5
2018-11-07T00:23:25.122Z,12.55
2018-11-07T00:24:05.689Z,12.54
2018-11-07T00:24:46.254Z,12.53
2018-11-07T00:25:26.844Z,12.55
2018-11-07T00:26:07.421Z,12.49
2018-11-07T00:26:47.985Z,12.5
2018-11-07T00:27:28.533Z,12.55
2018-11-07T00:28:09.109Z,12.54
2018-11-07T00:28:49.681Z,12.54
2018-11-07T00:29:30.260Z,12.49
2018-11-07T00:30:10.873Z,12.54
2018-11-07T00:30:51.410Z,12.49
2018-11-07T00:31:32.012Z,12.49
2018-11-07T00:32:12.562Z,12.46
2018-11-07T00:32:53.159Z,12.46
2018-11-07T00:33:33.714Z,12.45
2018-11-07T00:34:14.294Z,12.42
2018-11-07T00:34:54.887Z,12.54
2018-11-07T00:35:35.413Z,12.46
2018-11-07T00:36:16.000Z,12.49
2018-11-07T00:36:56.554Z,12.49
2018-11-07T00:37:37.106Z,12.47
2018-11-07T00:38:17.669Z,12.49
2018-11-07T00:38:58.237Z,12.46
2018-11-07T00:39:38.793Z,12.42
2018-11-07T00:40:19.343Z,12.47
2018-11-07T00:40:59.896Z,12.43
2018-11-07T00:41:40.476Z,12.46
2018-11-07T00:42:21.053Z,12.46
2018-11-07T00:43:01.617Z,12.42
2018-11-07T00:43:42.178Z,12.49
2018-11-07T00:44:22.782Z,12.47
2018-11-07T00:45:03.358Z,12.46
2018-11-07T00:45:43.934Z,12.45
2018-11-07T00:46:24.484Z,12.46
2018-11-07T00:47:05.059Z,12.4
2018-11-07T00:47:45.625Z,12.45
2018-11-07T00:48:26.186Z,12.45
2018-11-07T00:49:06.759Z,12.46
2018-11-07T00:49:47.339Z,12.43
2018-11-07T00:50:27.891Z,12.42
2018-11-07T00:51:08.441Z,12.46
2018-11-07T00:51:48.996Z,12.42
2018-11-07T00:52:29.562Z,12.46
2018-11-07T00:53:10.177Z,12.37
2018-11-07T00:53:50.719Z,12.42
2018-11-07T00:54:31.299Z,12.46
2018-11-07T00:55:11.863Z,12.42
2018-11-07T00:55:52.430Z,12.4
2018-11-07T00:56:33.011Z,12.47
2018-11-07T00:57:13.561Z,12.5
2018-11-07T00:57:54.176Z,12.5
2018-11-07T00:58:34.690Z,12.45
2018-11-07T00:59:15.251Z,12.49
2018-11-07T00:59:55.820Z,12.49
2018-11-07T01:00:36.380Z,12.46
2018-11-07T01:01:16.989Z,12.54
2018-11-07T01:01:57.527Z,12.5
2018-11-07T01:02:38.104Z,12.47
2018-11-07T01:03:18.655Z,12.43
2018-11-07T01:03:59.233Z,12.46
2018-11-07T01:04:39.778Z,12.49
2018-11-07T01:05:20.350Z,12.46
2018-11-07T01:06:00.962Z,12.42
2018-11-07T01:06:41.518Z,12.45
2018-11-07T01:07:22.064Z,12.46
2018-11-07T01:08:02.640Z,12.43
2018-11-07T01:08:43.209Z,12.37
2018-11-07T01:09:23.768Z,12.37
2018-11-07T01:10:04.401Z,12.37
2018-11-07T01:10:44.879Z,12.39
2018-11-07T01:11:25.476Z,12.39
2018-11-07T01:12:06.033Z,12.39
2018-11-07T01:12:46.583Z,12.32
2018-11-07T01:13:27.157Z,12.25
2018-11-07T01:14:07.722Z,12.32
2018-11-07T01:14:48.312Z,12.29
2018-11-07T01:15:28.862Z,12.25
2018-11-07T01:16:09.420Z,12.31
2018-11-07T01:16:50.137Z,12.35
2018-11-07T01:17:30.545Z,12.35
2018-11-07T01:18:11.107Z,12.27
2018-11-07T01:18:51.667Z,12.36
2018-11-07T01:19:32.224Z,12.21
2018-11-07T01:20:12.780Z,12.29
2018-11-07T01:20:53.348Z,12.35
2018-11-07T01:21:33.921Z,12.22
2018-11-07T01:22:14.485Z,12.37
2018-11-07T01:22:55.030Z,12.22
2018-11-07T01:23:35.600Z,12.22
2018-11-07T01:24:16.145Z,12.2
2018-11-07T01:24:56.704Z,12.21
2018-11-07T01:25:37.312Z,12.2
2018-11-07T01:26:17.858Z,12.24
2018-11-07T01:26:58.441Z,12.24
2018-11-07T01:27:39.001Z,12.24
2018-11-07T01:28:19.610Z,12.24
2018-11-07T01:29:00.114Z,12.21
2018-11-07T01:29:40.684Z,12.21
2018-11-07T01:30:21.245Z,12.18
2018-11-07T01:31:01.811Z,12.2
2018-11-07T01:31:42.381Z,12.15
2018-11-07T01:32:22.930Z,12.13
2018-11-07T01:33:03.507Z,12.1
2018-11-07T01:33:44.080Z,12.15
2018-11-07T01:34:24.629Z,12.2
2018-11-07T01:35:05.219Z,12.12
2018-11-07T01:35:45.791Z,12.2
2018-11-07T01:36:26.330Z,12.2
2018-11-07T01:37:06.902Z,12.15
2018-11-07T01:37:47.454Z,12.12
2018-11-07T01:38:28.040Z,12.15
2018-11-07T01:39:08.590Z,12.12
2018-11-07T01:39:49.158Z,12.12
2018-11-07T01:40:29.746Z,12.12
2018-11-07T01:41:10.334Z,12.1
2018-11-07T01:41:50.990Z,12.02
2018-11-07T01:42:31.483Z,12.09
2018-11-07T01:43:12.084Z,12.15
2018-11-07T01:43:52.615Z,12.09
2018-11-07T01:44:33.173Z,12.02
2018-11-07T01:45:13.764Z,12.1
2018-11-07T01:45:54.343Z,12
2018-11-07T01:46:34.913Z,12
2018-11-07T01:47:15.497Z,12.03
2018-11-07T01:47:56.039Z,11.99
2018-11-07T01:48:36.602Z,12.04
2018-11-07T01:49:17.208Z,11.94
2018-11-07T01:49:57.757Z,11.97
2018-11-07T01:50:38.305Z,11.99
2018-11-07T01:51:18.887Z,12
2018-11-07T01:52:00.291Z,11.94
2018-11-07T01:52:40.846Z,11.99
2018-11-07T01:53:21.395Z,12
2018-11-07T01:54:01.988Z,12.06
2018-11-07T01:54:42.564Z,11.99
2018-11-07T01:55:23.140Z,12.13
2018-11-07T01:56:03.697Z,11.95
2018-11-07T01:56:44.274Z,11.99
2018-11-07T01:57:24.833Z,11.99
2018-11-07T01:58:05.414Z,11.99
2018-11-07T01:58:45.975Z,12.06
2018-11-07T01:59:26.547Z,11.99
2018-11-07T02:00:07.100Z,12.02
2018-11-07T02:00:47.683Z,11.99
2018-11-07T02:01:28.274Z,11.97
2018-11-07T02:02:08.847Z,11.99
2018-11-07T02:02:49.415Z,12
2018-11-07T02:03:29.962Z,12.02
2018-11-07T02:04:10.510Z,11.97
2018-11-07T02:04:51.094Z,12.1
2018-11-07T02:05:31.676Z,12.02
2018-11-07T02:06:12.219Z,12
2018-11-07T02:06:52.778Z,11.97
2018-11-07T02:07:33.332Z,12
2018-11-07T02:08:13.909Z,12.06
2018-11-07T02:08:54.470Z,12
2018-11-07T02:09:35.045Z,12.02
2018-11-07T02:10:15.620Z,12.1
2018-11-07T02:10:56.210Z,12.03
2018-11-07T02:11:36.783Z,11.95
2018-11-07T02:12:17.340Z,11.94
2018-11-07T02:12:57.914Z,11.9
2018-11-07T02:13:38.471Z,11.88
2018-11-07T02:14:19.090Z,11.9
2018-11-07T02:14:59.659Z,11.99
2018-11-07T02:15:40.223Z,11.95
2018-11-07T02:16:20.791Z,11.91
2018-11-07T02:17:01.372Z,11.99
2018-11-07T02:17:41.936Z,11.97
2018-11-07T02:18:22.511Z,11.94
2018-11-07T02:19:03.066Z,11.94
2018-11-07T02:19:43.647Z,11.91
2018-11-07T02:20:24.215Z,11.97
2018-11-07T02:21:04.783Z,12
2018-11-07T02:21:45.344Z,11.9
2018-11-07T02:22:26.016Z,12
2018-11-07T02:23:06.537Z,11.9
2018-11-07T02:23:47.096Z,11.94
2018-11-07T02:24:27.670Z,11.91
2018-11-07T02:25:08.221Z,11.91
2018-11-07T02:25:48.778Z,11.9
2018-11-07T02:26:29.454Z,11.91
2018-11-07T02:27:09.939Z,11.88
2018-11-07T02:27:50.500Z,11.94
2018-11-07T02:28:31.064Z,11.94
2018-11-07T02:29:11.614Z,11.83
2018-11-07T02:29:52.228Z,11.94
2018-11-07T02:30:32.771Z,11.94
2018-11-07T02:31:13.323Z,11.86
2018-11-07T02:31:54.061Z,11.88
2018-11-07T02:32:34.620Z,11.94
2018-11-07T02:33:15.207Z,11.95
2018-11-07T02:33:55.782Z,11.83
2018-11-07T02:34:36.342Z,11.84
2018-11-07T02:35:16.895Z,11.84
2018-11-07T02:35:57.464Z,11.84
2018-11-07T02:36:38.031Z,11.8
2018-11-07T02:37:18.656Z,11.78
2018-11-07T02:37:59.211Z,11.88
2018-11-07T02:38:39.805Z,11.78
2018-11-07T02:39:20.368Z,11.87
2018-11-07T02:40:00.930Z,11.83
2018-11-07T02:40:41.505Z,11.83
2018-11-07T02:41:22.094Z,11.84
2018-11-07T02:42:02.912Z,11.84
2018-11-07T02:42:43.284Z,11.84
2018-11-07T02:43:23.846Z,11.77
2018-11-07T02:44:04.409Z,11.77
2018-11-07T02:44:44.961Z,11.83
2018-11-07T02:45:25.517Z,11.69
2018-11-07T02:46:06.107Z,11.73
2018-11-07T02:46:46.659Z,11.72
2018-11-07T02:47:27.215Z,11.69
2018-11-07T02:48:07.783Z,11.69
2018-11-07T02:48:48.338Z,11.75
2018-11-07T02:49:28.904Z,11.77
2018-11-07T02:50:09.472Z,11.77
2018-11-07T02:50:50.147Z,11.7
2018-11-07T02:51:30.658Z,11.65
2018-11-07T02:52:11.224Z,11.69
2018-11-07T02:52:51.794Z,11.69
2018-11-07T02:53:32.423Z,11.73
2018-11-07T02:54:12.906Z,11.72
2018-11-07T02:54:53.493Z,11.72
2018-11-07T02:55:34.047Z,11.72
2018-11-07T02:56:14.600Z,11.6
2018-11-07T02:56:55.159Z,11.69
2018-11-07T02:57:35.733Z,11.73
2018-11-07T02:58:16.302Z,11.72
2018-11-07T02:58:56.873Z,11.7
2018-11-07T02:59:37.441Z,11.68
2018-11-07T03:00:17.990Z,11.66
2018-11-07T03:00:58.580Z,11.77
2018-11-07T03:01:39.121Z,11.6
2018-11-07T03:02:19.683Z,11.69
2018-11-07T03:03:00.250Z,11.68
2018-11-07T03:03:40.827Z,11.68
2018-11-07T03:04:21.388Z,11.75
2018-11-07T03:05:01.946Z,11.66
2018-11-07T03:05:42.505Z,11.62
2018-11-07T03:06:23.059Z,11.7
2018-11-07T03:07:03.619Z,11.68
2018-11-07T03:07:44.217Z,11.72
2018-11-07T03:08:24.775Z,11.73
2018-11-07T03:09:05.363Z,11.72
2018-11-07T03:09:45.915Z,11.75
2018-11-07T03:10:26.526Z,11.68
2018-11-07T03:11:07.021Z,11.75
2018-11-07T03:11:47.577Z,11.75
2018-11-07T03:12:28.143Z,11.65
2018-11-07T03:13:08.707Z,11.77
2018-11-07T03:13:49.327Z,11.69
2018-11-07T03:14:29.869Z,11.72
2018-11-07T03:15:10.425Z,11.75
2018-11-07T03:15:50.978Z,11.68
2018-11-07T03:16:31.557Z,11.75
2018-11-07T03:17:12.118Z,11.69
2018-11-07T03:17:52.674Z,11.72
2018-11-07T03:18:33.227Z,11.65
2018-11-07T03:19:13.816Z,11.6
2018-11-07T03:19:54.367Z,11.65
2018-11-07T03:20:34.941Z,11.65
2018-11-07T03:21:15.516Z,11.73
2018-11-07T03:21:56.075Z,11.68
2018-11-07T03:22:36.669Z,11.68
2018-11-07T03:23:17.229Z,11.62
2018-11-07T03:23:57.796Z,11.7
2018-11-07T03:24:38.420Z,11.7
2018-11-07T03:25:18.983Z,11.72
2018-11-07T03:25:59.534Z,11.68
2018-11-07T03:26:40.097Z,11.63
2018-11-07T03:27:20.682Z,11.66
2018-11-07T03:28:01.249Z,11.68
2018-11-07T03:28:41.809Z,11.68
2018-11-07T03:29:22.375Z,11.66
2018-11-07T03:30:02.935Z,11.68
2018-11-07T03:30:43.502Z,11.6
2018-11-07T03:31:24.102Z,11.66
2018-11-07T03:32:04.719Z,11.7
2018-11-07T03:32:45.313Z,11.68
2018-11-07T03:33:25.868Z,11.62
2018-11-07T03:34:06.448Z,11.7
2018-11-07T03:34:47.000Z,11.72
2018-11-07T03:35:27.617Z,11.73
2018-11-07T03:36:08.148Z,11.62
2018-11-07T03:36:48.782Z,11.55
2018-11-07T03:37:29.384Z,11.63
2018-11-07T03:38:09.937Z,11.6
2018-11-07T03:38:50.510Z,11.6
2018-11-07T03:39:31.101Z,11.57
2018-11-07T03:40:11.633Z,11.55
2018-11-07T03:40:52.179Z,11.55
2018-11-07T03:41:32.732Z,11.55
2018-11-07T03:42:13.285Z,11.6
2018-11-07T03:42:53.850Z,11.62
2018-11-07T03:43:34.437Z,11.55
2018-11-07T03:44:15.002Z,11.59
2018-11-07T03:44:55.558Z,11.6
2018-11-07T03:45:36.104Z,11.52
2018-11-07T03:46:16.692Z,11.63
2018-11-07T03:46:57.264Z,11.63
2018-11-07T03:47:37.863Z,11.57
2018-11-07T03:48:18.422Z,11.52
2018-11-07T03:48:58.989Z,11.57
2018-11-07T03:49:39.557Z,11.62
2018-11-07T03:50:20.132Z,11.57
2018-11-07T03:51:00.702Z,11.51
2018-11-07T03:51:41.269Z,11.52
2018-11-07T03:52:21.817Z,11.6
2018-11-07T03:53:02.492Z,11.51
2018-11-07T03:53:42.982Z,11.52
2018-11-07T03:54:23.545Z,11.52
2018-11-07T03:55:04.138Z,11.52
2018-11-07T03:55:44.780Z,11.45
2018-11-07T03:56:25.385Z,11.51
2018-11-07T03:57:05.929Z,11.5
2018-11-07T03:57:46.490Z,11.47
2018-11-07T03:58:27.036Z,11.51
2018-11-07T03:59:07.659Z,11.51
2018-11-07T03:59:48.251Z,11.48
2018-11-07T04:00:28.813Z,11.43
2018-11-07T04:01:09.415Z,11.52
2018-11-07T04:01:50.011Z,11.47
2018-11-07T04:02:30.618Z,11.5
2018-11-07T04:03:11.201Z,11.51
2018-11-07T04:03:51.785Z,11.48
2018-11-07T04:04:32.435Z,11.44
2018-11-07T04:05:12.944Z,11.44
2018-11-07T04:05:53.496Z,11.41
2018-11-07T04:06:34.124Z,11.4
2018-11-07T04:07:14.651Z,11.4
2018-11-07T04:07:55.216Z,11.4
2018-11-07T04:08:35.813Z,11.37
2018-11-07T04:09:16.387Z,11.4
2018-11-07T04:09:56.955Z,11.36
2018-11-07T04:10:37.558Z,11.32
2018-11-07T04:11:18.123Z,11.33
2018-11-07T04:11:58.687Z,11.33
2018-11-07T04:12:39.269Z,11.3
2018-11-07T04:13:19.817Z,11.33
2018-11-07T04:14:00.385Z,11.29
2018-11-07T04:14:40.956Z,11.3
2018-11-07T04:15:21.519Z,11.35
2018-11-07T04:16:02.091Z,11.35
2018-11-07T04:16:42.639Z,11.29
2018-11-07T04:17:23.195Z,11.26
2018-11-07T04:18:03.762Z,11.3
2018-11-07T04:18:44.333Z,11.35
2018-11-07T04:19:24.915Z,11.23
2018-11-07T04:20:05.477Z,11.3
2018-11-07T04:20:46.032Z,11.29
2018-11-07T04:21:26.626Z,11.19
2018-11-07T04:22:07.188Z,11.22
2018-11-07T04:22:47.743Z,11.27
2018-11-07T04:23:28.307Z,11.26
2018-11-07T04:24:08.910Z,11.22
2018-11-07T04:24:49.485Z,11.12
2018-11-07T04:25:30.033Z,11.14
2018-11-07T04:26:10.600Z,11.18
2018-11-07T04:26:51.176Z,11.14
2018-11-07T04:27:31.742Z,11.17
2018-11-07T04:28:12.328Z,11.18
2018-11-07T04:28:52.918Z,11.17
2018-11-07T04:29:33.507Z,11.15
2018-11-07T04:30:14.087Z,11.1
2018-11-07T04:30:54.634Z,11.17
2018-11-07T04:31:35.208Z,11.05
2018-11-07T04:32:15.756Z,11.08
2018-11-07T04:32:56.342Z,11.14
2018-11-07T04:33:36.905Z,11.08
2018-11-07T04:34:17.474Z,11.18
2018-11-07T04:34:58.030Z,11.07
2018-11-07T04:35:38.594Z,11.11
2018-11-07T04:36:19.155Z,11.08
2018-11-07T04:36:59.703Z,11.1
2018-11-07T04:37:40.263Z,11.11
2018-11-07T04:38:20.820Z,11.12
2018-11-07T04:39:01.439Z,11.05
2018-11-07T04:39:41.940Z,11.07
2018-11-07T04:40:22.517Z,11.12
2018-11-07T04:41:03.085Z,11.12
2018-11-07T04:41:43.626Z,11.05
2018-11-07T04:42:24.194Z,11.04
2018-11-07T04:43:04.764Z,11.07
2018-11-07T04:43:45.329Z,10.97
2018-11-07T04:44:25.918Z,11.1
2018-11-07T04:45:06.468Z,11.04
2018-11-07T04:45:47.038Z,11.07
2018-11-07T04:46:27.608Z,11.04
2018-11-07T04:47:08.157Z,10.99
2018-11-07T04:47:48.717Z,10.99
2018-11-07T04:48:29.276Z,11.05
2018-11-07T04:49:09.836Z,10.99
2018-11-07T04:49:50.432Z,10.96
2018-11-07T04:50:31.001Z,10.97
2018-11-07T04:51:11.562Z,10.99
2018-11-07T04:51:52.125Z,11.05
2018-11-07T04:52:32.674Z,10.99
2018-11-07T04:53:13.220Z,10.93
2018-11-07T04:53:53.773Z,10.97
2018-11-07T04:54:34.339Z,11.05
2018-11-07T04:55:14.914Z,11.08
2018-11-07T04:55:55.467Z,10.99
2018-11-07T04:56:36.028Z,11
2018-11-07T04:57:16.597Z,10.93
2018-11-07T04:57:57.164Z,10.97
2018-11-07T04:58:37.707Z,10.93
2018-11-07T04:59:18.263Z,10.96
2018-11-07T04:59:58.873Z,10.97
2018-11-07T05:00:39.403Z,11
2018-11-07T05:01:19.948Z,10.99
2018-11-07T05:02:00.524Z,10.92
2018-11-07T05:02:41.085Z,10.92
2018-11-07T05:03:21.654Z,10.92
2018-11-07T05:04:02.227Z,10.9
2018-11-07T05:04:42.791Z,10.92
2018-11-07T05:05:23.356Z,11.04
2018-11-07T05:06:03.936Z,10.94
2018-11-07T05:06:44.524Z,10.86
2018-11-07T05:07:25.087Z,10.96
2018-11-07T05:08:05.635Z,10.94
2018-11-07T05:08:46.274Z,11.04
2018-11-07T05:09:26.764Z,10.9
2018-11-07T05:10:07.311Z,10.94
2018-11-07T05:10:47.892Z,10.97
2018-11-07T05:11:28.452Z,10.96
2018-11-07T05:12:09.014Z,10.9
2018-11-07T05:12:49.589Z,10.87
2018-11-07T05:13:30.149Z,10.92
2018-11-07T05:14:10.701Z,10.86
2018-11-07T05:14:51.438Z,10.9
2018-11-07T05:15:32.007Z,11
2018-11-07T05:16:12.578Z,10.9
2018-11-07T05:16:53.243Z,10.89
2018-11-07T05:17:33.909Z,10.84
2018-11-07T05:18:14.482Z,10.84
2018-11-07T05:18:55.080Z,10.84
2018-11-07T05:19:35.609Z,10.84
2018-11-07T05:20:16.162Z,10.81
2018-11-07T05:20:56.755Z,10.82
2018-11-07T05:21:37.316Z,10.75
2018-11-07T05:22:17.899Z,10.87
2018-11-07T05:22:58.452Z,10.79
2018-11-07T05:23:39.041Z,10.78
2018-11-07T05:24:19.619Z,10.86
2018-11-07T05:25:00.177Z,10.93
2018-11-07T05:25:40.748Z,10.81
2018-11-07T05:26:21.395Z,10.87
2018-11-07T05:27:01.883Z,10.78
2018-11-07T05:27:42.442Z,10.81
2018-11-07T05:28:23.046Z,10.78
2018-11-07T05:29:03.564Z,10.75
2018-11-07T05:29:44.130Z,10.75
2018-11-07T05:30:24.699Z,10.76
2018-11-07T05:31:05.306Z,10.74
2018-11-07T05:31:46.011Z,10.78
2018-11-07T05:32:26.461Z,10.81
2018-11-07T05:33:07.014Z,10.78
2018-11-07T05:33:47.588Z,10.78
2018-11-07T05:34:28.160Z,10.78
2018-11-07T05:35:08.723Z,10.75
2018-11-07T05:35:49.302Z,10.81
2018-11-07T05:36:29.832Z,10.81
2018-11-07T05:37:10.408Z,10.81
2018-11-07T05:37:50.968Z,10.78
2018-11-07T05:38:31.532Z,10.75
2018-11-07T05:39:12.074Z,10.79
2018-11-07T05:39:52.673Z,10.9
2018-11-07T05:40:33.239Z,10.79
2018-11-07T05:41:13.902Z,10.79
2018-11-07T05:41:54.375Z,10.78
2018-11-07T05:42:34.934Z,10.79
2018-11-07T05:43:15.686Z,10.79
2018-11-07T05:43:56.467Z,10.87
2018-11-07T05:44:37.103Z,10.84
2018-11-07T05:45:17.673Z,10.81
2018-11-07T05:45:58.203Z,10.84
2018-11-07T05:46:38.778Z,10.82
2018-11-07T05:47:19.350Z,10.86
2018-11-07T05:47:59.914Z,10.81
2018-11-07T05:48:40.465Z,10.79
2018-11-07T05:49:21.023Z,10.82
2018-11-07T05:50:01.597Z,10.84
2018-11-07T05:50:42.166Z,10.87
2018-11-07T05:51:22.725Z,10.74
2018-11-07T05:52:03.275Z,10.75
2018-11-07T05:52:43.842Z,10.75
2018-11-07T05:53:24.423Z,10.72
2018-11-07T05:54:04.985Z,10.75
2018-11-07T05:54:45.572Z,10.81
2018-11-07T05:55:26.130Z,10.76
2018-11-07T05:56:06.678Z,10.75
2018-11-07T05:56:47.234Z,10.78
2018-11-07T05:57:27.779Z,10.76
2018-11-07T05:58:08.343Z,10.76
2018-11-07T05:58:48.921Z,10.74
2018-11-07T05:59:29.486Z,10.72
2018-11-07T06:00:10.092Z,10.75
2018-11-07T06:00:50.655Z,10.71
2018-11-07T06:01:31.225Z,10.75
2018-11-07T06:02:11.803Z,10.76
2018-11-07T06:02:52.363Z,10.69
2018-11-07T06:03:32.922Z,10.69
2018-11-07T06:04:13.480Z,10.61
2018-11-07T06:04:54.037Z,10.6
2018-11-07T06:05:34.647Z,10.6
2018-11-07T06:06:15.199Z,10.64
2018-11-07T06:06:55.752Z,10.63
2018-11-07T06:07:36.319Z,10.49
2018-11-07T06:08:16.870Z,10.56
2018-11-07T06:08:57.422Z,10.51
2018-11-07T06:09:37.984Z,10.48
2018-11-07T06:10:18.546Z,10.41
2018-11-07T06:10:59.096Z,10.48
2018-11-07T06:11:39.684Z,10.51
2018-11-07T06:12:20.277Z,10.42
2018-11-07T06:13:00.839Z,10.49
2018-11-07T06:13:41.409Z,10.48
2018-11-07T06:14:21.979Z,10.53
2018-11-07T06:15:02.544Z,10.57
2018-11-07T06:15:43.104Z,10.53
2018-11-07T06:16:23.708Z,10.49
2018-11-07T06:17:04.263Z,10.46
2018-11-07T06:17:44.839Z,10.41
2018-11-07T06:18:25.404Z,10.54
2018-11-07T06:19:05.961Z,10.54
2018-11-07T06:19:46.536Z,10.57
2018-11-07T06:20:27.101Z,10.49
2018-11-07T06:21:07.767Z,10.51
2018-11-07T06:21:48.360Z,10.42
2018-11-07T06:22:28.918Z,10.56
2018-11-07T06:23:09.478Z,10.49
2018-11-07T06:23:50.045Z,10.53
2018-11-07T06:24:30.766Z,10.59
2018-11-07T06:25:12.245Z,10.63
2018-11-07T06:25:52.068Z,10.71
2018-11-07T06:26:32.632Z,10.75
2018-11-07T06:27:13.214Z,10.9
2018-11-07T06:27:53.775Z,10.93
2018-11-07T06:28:34.436Z,11.17
2018-11-07T06:29:14.994Z,11.19
2018-11-07T06:29:55.559Z,11.3
2018-11-07T06:30:36.151Z,11.36
2018-11-07T06:31:16.699Z,11.41
2018-11-07T06:31:57.245Z,11.48
2018-11-07T06:32:37.839Z,11.62
2018-11-07T06:33:18.415Z,11.68
2018-11-07T06:33:59.001Z,11.73
2018-11-07T06:34:39.631Z,11.94
2018-11-07T06:35:20.182Z,11.91
2018-11-07T06:36:00.788Z,11.95
2018-11-07T06:36:41.508Z,12.04
2018-11-07T06:37:22.068Z,11.97
2018-11-07T06:38:02.741Z,11.95
2018-11-07T06:38:43.301Z,12.07
2018-11-07T06:39:23.904Z,12.18
2018-11-07T06:40:04.476Z,12.09
2018-11-07T06:40:45.303Z,12.15
2018-11-07T06:41:25.994Z,11.99
2018-11-07T06:42:06.588Z,12.04
2018-11-07T06:42:47.152Z,12.1
2018-11-07T06:43:28.179Z,12.2
2018-11-07T06:44:08.932Z,12.21
2018-11-07T06:44:49.660Z,12.13
2018-11-07T06:45:30.352Z,12.17
2018-11-07T06:46:10.893Z,12.18
2018-11-07T06:46:51.453Z,12.21
2018-11-07T06:47:32.060Z,12.32
2018-11-07T06:48:12.730Z,12.35
2018-11-07T06:48:53.301Z,12.29
2018-11-07T06:49:33.855Z,12.31
2018-11-07T06:50:14.425Z,12.36
2018-11-07T06:50:55.328Z,12.37
2018-11-07T06:51:35.883Z,12.53
2018-11-07T06:52:16.439Z,12.53
2018-11-07T06:52:57.744Z,12.67
2018-11-07T06:53:37.756Z,12.73
2018-11-07T06:54:18.319Z,12.76
2018-11-07T06:54:58.882Z,12.73
2018-11-07T06:55:39.450Z,12.73
2018-11-07T06:56:20.024Z,12.73
2018-11-07T06:57:00.591Z,12.61
2018-11-07T06:57:41.204Z,12.57
2018-11-07T06:58:21.766Z,12.61
2018-11-07T06:59:02.509Z,12.54
2018-11-07T06:59:43.071Z,12.49
2018-11-07T07:00:23.649Z,12.46
2018-11-07T07:01:04.204Z,12.39
2018-11-07T07:01:44.930Z,12.35
2018-11-07T07:02:25.517Z,12.27
2018-11-07T07:03:06.084Z,12.36
2018-11-07T07:03:46.630Z,12.37
2018-11-07T07:04:27.185Z,12.21
2018-11-07T07:05:07.734Z,12.09
2018-11-07T07:05:48.288Z,12.13
2018-11-07T07:06:28.853Z,12.06
2018-11-07T07:07:09.456Z,12
2018-11-07T07:07:50.024Z,11.83
2018-11-07T07:08:31.151Z,11.83
2018-11-07T07:09:11.715Z,11.86
2018-11-07T07:09:52.516Z,11.69
2018-11-07T07:10:33.744Z,11.63
2018-11-07T07:11:14.412Z,11.7
2018-11-07T07:11:55.043Z,11.69
2018-11-07T07:12:35.970Z,11.62
2018-11-07T07:13:16.458Z,11.62
2018-11-07T07:13:57.045Z,11.52
2018-11-07T07:14:37.616Z,11.51
2018-11-07T07:15:18.208Z,11.44
2018-11-07T07:15:59.820Z,11.48
2018-11-07T07:16:40.479Z,11.35
2018-11-07T07:17:21.283Z,11.44
2018-11-07T07:18:03.142Z,11.35
2018-11-07T07:18:44.515Z,11.35
2018-11-07T07:19:25.170Z,11.22
2018-11-07T07:20:05.721Z,11.26
2018-11-07T07:20:46.302Z,11.23
2018-11-07T07:21:26.885Z,11.12
2018-11-07T07:22:07.430Z,11.1
2018-11-07T07:22:47.978Z,11
2018-11-07T07:23:28.540Z,11
2018-11-07T07:24:09.107Z,10.94
2018-11-07T07:24:49.657Z,11
2018-11-07T07:25:30.237Z,10.89
2018-11-07T07:26:10.803Z,11.04
2018-11-07T07:26:51.362Z,10.89
2018-11-07T07:27:31.949Z,10.92
2018-11-07T07:28:12.526Z,10.99
2018-11-07T07:28:53.773Z,10.94
2018-11-07T07:29:34.337Z,10.97
2018-11-07T07:30:14.918Z,10.9
2018-11-07T07:30:55.484Z,10.97
2018-11-07T07:31:36.135Z,11.02
2018-11-07T07:32:16.966Z,10.96
2018-11-07T07:32:58.297Z,10.97
2018-11-07T07:33:38.314Z,11
2018-11-07T07:34:18.850Z,10.93
2018-11-07T07:34:59.414Z,10.92
2018-11-07T07:35:39.977Z,10.92
2018-11-07T07:36:20.741Z,10.92
2018-11-07T07:37:02.250Z,10.94
2018-11-07T07:37:42.919Z,10.97
2018-11-07T07:38:23.614Z,10.92
2018-11-07T07:39:04.473Z,10.93
2018-11-07T07:39:45.169Z,11.1
2018-11-07T07:40:26.203Z,11.05
2018-11-07T07:41:06.803Z,11.04
2018-11-07T07:41:47.649Z,11.04
2018-11-07T07:42:28.577Z,11.08
2018-11-07T07:43:09.161Z,11.04
2018-11-07T07:43:49.724Z,11.1
2018-11-07T07:44:30.328Z,11.04
2018-11-07T07:45:10.863Z,11.11
2018-11-07T07:45:51.422Z,11.12
2018-11-07T07:46:32.077Z,11.05
2018-11-07T07:47:12.659Z,11.04
2018-11-07T07:47:53.272Z,11.08
2018-11-07T07:48:33.827Z,11.02
2018-11-07T07:49:14.406Z,11.08
2018-11-07T07:49:54.925Z,11.04
2018-11-07T07:50:35.499Z,11.1
2018-11-07T07:51:16.169Z,11.12
2018-11-07T07:51:56.729Z,11.04
2018-11-07T07:52:37.276Z,11.07
2018-11-07T07:53:18.234Z,11.05
2018-11-07T07:53:58.770Z,11.05
2018-11-07T07:54:39.326Z,11.1
2018-11-07T07:55:19.899Z,11.04
2018-11-07T07:56:00.589Z,11.08
2018-11-07T07:56:41.157Z,11.07
2018-11-07T07:57:21.851Z,11.04
2018-11-07T07:58:02.597Z,11.08
2018-11-07T07:58:43.145Z,11.11
2018-11-07T07:59:23.723Z,11.08
2018-11-07T08:00:04.280Z,11.07
2018-11-07T08:00:44.877Z,11.08
2018-11-07T08:01:25.528Z,11.18
2018-11-07T08:02:06.083Z,11.17
2018-11-07T08:02:46.637Z,11.11
2018-11-07T08:03:27.184Z,11.15
2018-11-07T08:04:07.738Z,11.25
2018-11-07T08:04:48.333Z,11.32
2018-11-07T08:05:28.888Z,11.33
2018-11-07T08:06:09.464Z,11.4
2018-11-07T08:06:50.082Z,11.5
2018-11-07T08:07:30.584Z,11.57
2018-11-07T08:08:11.173Z,11.65
2018-11-07T08:08:51.729Z,11.77
2018-11-07T08:09:32.296Z,11.87
2018-11-07T08:10:12.900Z,11.97
2018-11-07T08:10:53.444Z,11.99
2018-11-07T08:11:33.993Z,12.22
2018-11-07T08:12:14.549Z,12.4
2018-11-07T08:12:55.145Z,12.57
2018-11-07T08:13:35.816Z,12.76
2018-11-07T08:14:16.253Z,12.93
2018-11-07T08:14:56.813Z,13.05
2018-11-07T08:15:37.363Z,13.31
2018-11-07T08:16:17.922Z,13.39
2018-11-07T08:16:58.488Z,13.53
2018-11-07T08:17:39.108Z,13.74
2018-11-07T08:18:19.661Z,13.9
2018-11-07T08:19:00.277Z,14.12
2018-11-07T08:19:40.842Z,14.36
2018-11-07T08:20:21.427Z,14.48
2018-11-07T08:21:02.014Z,14.59
2018-11-07T08:21:42.559Z,14.72
2018-11-07T08:22:23.105Z,14.94
2018-11-07T08:23:03.660Z,14.99
2018-11-07T08:23:44.242Z,15.11
2018-11-07T08:24:24.847Z,15.25
2018-11-07T08:25:05.439Z,15.39
2018-11-07T08:25:46.317Z,15.4
2018-11-07T08:26:26.899Z,15.44
2018-11-07T08:27:07.466Z,15.61
2018-11-07T08:27:48.029Z,15.68
2018-11-07T08:28:29.009Z,15.72
2018-11-07T08:29:09.774Z,15.73
2018-11-07T08:29:50.508Z,15.76
2018-11-07T08:30:31.106Z,15.88
2018-11-07T08:31:11.714Z,15.82
2018-11-07T08:31:52.304Z,15.83
2018-11-07T08:32:32.906Z,15.84
2018-11-07T08:33:13.495Z,15.83
2018-11-07T08:33:54.062Z,15.75
2018-11-07T08:34:34.705Z,15.62
2018-11-07T08:35:15.419Z,15.59
2018-11-07T08:35:56.140Z,15.51
2018-11-07T08:36:36.703Z,15.43
2018-11-07T08:37:17.272Z,15.47
2018-11-07T08:37:57.831Z,15.44
2018-11-07T08:38:38.402Z,15.59
2018-11-07T08:39:18.975Z,15.61
2018-11-07T08:39:59.548Z,15.65
2018-11-07T08:40:40.112Z,15.8
2018-11-07T08:41:20.676Z,15.77
2018-11-07T08:42:01.233Z,15.84
2018-11-07T08:42:41.931Z,15.86
2018-11-07T08:43:22.497Z,15.97
2018-11-07T08:44:03.056Z,16
2018-11-07T08:44:43.620Z,15.98
2018-11-07T08:45:24.188Z,16.05
2018-11-07T08:46:04.745Z,16